createdAt,value
2017-07-06T00:02:13.604Z,14.30
2017-07-06T00:04:41.744Z,14.30
2017-07-06T00:07:09.895Z,14.30
2017-07-06T00:09:47.468Z,14.30
2017-07-06T00:12:15.949Z,14.30
2017-07-06T00:14:44.817Z,14.30
2017-07-06T00:17:14.917Z,14.30
2017-07-06T00:19:44.029Z,14.30
2017-07-06T00:22:12.991Z,14.20
2017-07-06T00:24:41.108Z,14.20
2017-07-06T00:27:11.217Z,14.10
2017-07-06T00:29:40.227Z,14.10
2017-07-06T00:32:11.241Z,14.00
2017-07-06T00:34:43.355Z,13.90
2017-07-06T00:37:12.386Z,13.90
2017-07-06T00:39:40.537Z,13.80
2017-07-06T00:42:08.655Z,13.80
2017-07-06T00:44:36.807Z,13.70
2017-07-06T00:47:04.998Z,13.70
2017-07-06T00:49:33.763Z,13.70
2017-07-06T00:52:01.919Z,13.60
2017-07-06T00:54:31.195Z,13.50
2017-07-06T00:57:00.207Z,13.50
2017-07-06T00:59:29.126Z,13.50
2017-07-06T01:01:57.954Z,13.40
2017-07-06T01:04:26.056Z,13.40
2017-07-06T01:06:54.196Z,13.40
2017-07-06T01:09:22.330Z,13.40
2017-07-06T01:11:50.465Z,13.30
2017-07-06T01:14:18.635Z,13.30
2017-07-06T01:16:46.949Z,13.30
2017-07-06T01:19:15.059Z,13.30
2017-07-06T01:21:44.186Z,13.30
2017-07-06T01:24:12.298Z,13.20
2017-07-06T01:26:40.423Z,13.20
2017-07-06T01:29:12.885Z,13.20
2017-07-06T01:31:41.135Z,13.10
2017-07-06T01:34:09.868Z,13.10
2017-07-06T01:36:38.486Z,13.10
2017-07-06T01:39:07.967Z,13.10
2017-07-06T01:41:36.162Z,13.10
2017-07-06T01:44:06.920Z,13.00
2017-07-06T01:46:43.045Z,13.00
2017-07-06T01:49:11.181Z,13.00
2017-07-06T01:51:40.183Z,12.90
2017-07-06T01:54:08.904Z,12.90
2017-07-06T01:56:37.084Z,12.90
2017-07-06T01:59:05.208Z,12.80
2017-07-06T02:01:34.089Z,12.80
2017-07-06T02:04:02.809Z,12.80
2017-07-06T02:06:31.843Z,12.80
2017-07-06T02:09:01.372Z,12.80
2017-07-06T02:11:30.209Z,12.70
2017-07-06T02:13:58.344Z,12.70
2017-07-06T02:16:28.195Z,12.70
2017-07-06T02:19:00.066Z,12.60
2017-07-06T02:21:28.281Z,12.70
2017-07-06T02:23:56.406Z,12.70
2017-07-06T02:26:36.551Z,12.60
2017-07-06T02:29:05.592Z,12.60
2017-07-06T02:31:33.708Z,12.60
2017-07-06T02:34:01.840Z,12.50
2017-07-06T02:36:29.966Z,12.50
2017-07-06T02:39:08.053Z,12.50
2017-07-06T02:41:36.159Z,12.60
2017-07-06T02:44:05.144Z,12.60
2017-07-06T02:46:34.754Z,12.60
2017-07-06T02:49:03.709Z,12.50
2017-07-06T02:51:32.701Z,12.50
2017-07-06T02:54:03.359Z,12.50
2017-07-06T02:56:35.725Z,12.40
2017-07-06T02:59:06.360Z,12.40
2017-07-06T03:01:41.810Z,12.50
2017-07-06T03:04:09.920Z,12.40
2017-07-06T03:06:46.019Z,12.40
2017-07-06T03:09:14.156Z,12.40
2017-07-06T03:11:43.074Z,12.40
2017-07-06T03:14:13.144Z,12.40
2017-07-06T03:16:43.834Z,12.40
2017-07-06T03:19:11.956Z,12.40
2017-07-06T03:24:18.938Z,12.40
2017-07-06T03:26:47.064Z,12.50
2017-07-06T03:29:15.208Z,12.50
2017-07-06T03:31:43.347Z,12.50
2017-07-06T03:34:14.353Z,12.50
2017-07-06T03:36:42.520Z,12.60
2017-07-06T03:39:10.678Z,12.70
2017-07-06T03:41:39.122Z,12.70
2017-07-06T03:44:07.280Z,12.80
2017-07-06T03:46:35.847Z,12.90
2017-07-06T03:49:06.209Z,12.90
2017-07-06T03:51:34.356Z,13.20
2017-07-06T03:54:02.465Z,13.60
2017-07-06T03:56:31.858Z,14.00
2017-07-06T03:58:59.972Z,14.30
2017-07-06T04:01:28.110Z,14.70
2017-07-06T04:04:02.859Z,15.30
2017-07-06T04:06:31.023Z,15.70
2017-07-06T04:08:59.224Z,16.10
2017-07-06T04:11:27.366Z,16.50
2017-07-06T04:14:00.515Z,16.90
2017-07-06T04:16:28.661Z,17.30
2017-07-06T04:18:57.579Z,17.40
2017-07-06T04:21:25.747Z,17.40
2017-07-06T04:23:53.965Z,17.30
2017-07-06T04:26:22.037Z,17.30
2017-07-06T04:28:58.401Z,17.30
2017-07-06T04:31:26.535Z,16.50
2017-07-06T04:33:54.719Z,16.40
2017-07-06T04:36:22.834Z,16.80
2017-07-06T04:38:50.964Z,16.80
2017-07-06T04:41:19.115Z,17.20
2017-07-06T04:43:47.249Z,17.90
2017-07-06T04:46:15.960Z,18.70
2017-07-06T04:48:44.078Z,18.60
2017-07-06T04:51:12.197Z,18.90
2017-07-06T04:53:40.339Z,20.00
2017-07-06T04:56:08.533Z,21.50
2017-07-06T04:58:36.677Z,22.10
2017-07-06T05:01:04.787Z,22.30
2017-07-06T05:03:32.980Z,21.40
2017-07-06T05:06:01.874Z,19.60
2017-07-06T05:08:30.050Z,19.60
2017-07-06T05:10:58.244Z,19.60
2017-07-06T05:13:26.410Z,18.60
2017-07-06T05:16:06.827Z,19.00
2017-07-06T05:18:35.035Z,20.40
2017-07-06T05:21:03.933Z,19.10
2017-07-06T05:23:32.067Z,19.10
2017-07-06T05:26:00.190Z,18.40
2017-07-06T05:28:28.303Z,17.80
2017-07-06T05:30:56.475Z,17.40
2017-07-06T05:33:24.638Z,17.10
2017-07-06T05:35:52.786Z,16.90
2017-07-06T05:38:20.928Z,16.80
2017-07-06T05:40:49.178Z,16.70
2017-07-06T05:43:17.319Z,16.60
2017-07-06T05:45:45.451Z,16.50
2017-07-06T05:48:13.620Z,16.40
2017-07-06T05:50:41.735Z,16.40
2017-07-06T05:53:09.970Z,16.30
2017-07-06T05:55:38.087Z,16.30
2017-07-06T05:58:06.995Z,16.20
2017-07-06T06:00:35.139Z,16.10
2017-07-06T06:03:03.350Z,16.10
2017-07-06T06:05:31.499Z,16.10
2017-07-06T06:08:00.279Z,16.10
2017-07-06T06:10:30.827Z,16.10
2017-07-06T06:13:00.239Z,16.10
2017-07-06T06:15:29.003Z,16.10
2017-07-06T06:17:57.206Z,16.00
2017-07-06T06:20:25.417Z,16.00
2017-07-06T06:22:53.675Z,16.10
2017-07-06T06:25:21.836Z,16.30
2017-07-06T06:27:50.773Z,16.60
2017-07-06T06:30:19.604Z,16.90
2017-07-06T06:32:47.780Z,16.90
2017-07-06T06:35:15.927Z,17.00
2017-07-06T06:37:44.184Z,17.20
2017-07-06T06:40:13.335Z,17.30
2017-07-06T06:42:42.691Z,17.40
2017-07-06T06:45:12.019Z,17.50
2017-07-06T06:47:41.152Z,17.60
2017-07-06T06:50:09.371Z,17.70
2017-07-06T06:52:37.519Z,17.70
2017-07-06T06:55:05.653Z,17.60
2017-07-06T06:57:34.623Z,17.70
2017-07-06T07:00:02.827Z,17.70
2017-07-06T07:02:30.970Z,17.80
2017-07-06T07:04:59.128Z,17.70
2017-07-06T07:07:27.275Z,17.60
2017-07-06T07:09:55.471Z,17.60
2017-07-06T07:12:23.638Z,17.60
2017-07-06T07:14:51.787Z,17.80
2017-07-06T07:17:19.913Z,17.90
2017-07-06T07:19:48.186Z,18.10
2017-07-06T07:22:16.395Z,18.30
2017-07-06T07:24:44.587Z,18.40
2017-07-06T07:27:12.774Z,18.50
2017-07-06T07:29:47.286Z,18.50
2017-07-06T07:32:15.459Z,18.60
2017-07-06T07:34:43.850Z,18.70
2017-07-06T07:37:12.860Z,18.90
2017-07-06T07:39:41.878Z,18.90
2017-07-06T07:42:10.123Z,18.80
2017-07-06T07:44:39.087Z,18.70
2017-07-06T07:47:08.277Z,18.70
2017-07-06T07:49:36.418Z,18.60
2017-07-06T07:52:04.547Z,18.60
2017-07-06T07:54:32.758Z,18.60
2017-07-06T07:57:00.974Z,18.70
2017-07-06T07:59:29.096Z,18.90
2017-07-06T08:01:58.003Z,19.10
2017-07-06T08:04:26.163Z,19.10
2017-07-06T08:06:54.406Z,19.10
2017-07-06T08:09:23.407Z,19.10
2017-07-06T08:11:51.600Z,19.10
2017-07-06T08:14:19.731Z,19.20
2017-07-06T08:16:47.883Z,19.20
2017-07-06T08:19:16.079Z,19.30
2017-07-06T08:21:44.756Z,19.40
2017-07-06T08:24:12.902Z,19.30
2017-07-06T08:26:41.044Z,19.40
2017-07-06T08:29:09.173Z,19.40
2017-07-06T08:31:37.447Z,19.30
2017-07-06T08:34:05.578Z,19.40
2017-07-06T08:36:33.737Z,19.40
2017-07-06T08:39:02.527Z,19.40
2017-07-06T08:41:30.651Z,19.40
2017-07-06T08:43:59.002Z,19.50
2017-07-06T08:46:34.913Z,19.50
2017-07-06T08:49:03.161Z,19.40
2017-07-06T08:51:31.337Z,19.40
2017-07-06T08:53:59.551Z,19.50
2017-07-06T08:56:28.521Z,19.60
2017-07-06T08:58:56.673Z,19.60
2017-07-06T09:01:24.918Z,19.60
2017-07-06T09:03:54.154Z,19.60
2017-07-06T09:06:22.375Z,19.70
2017-07-06T09:08:50.549Z,19.70
2017-07-06T09:11:20.306Z,19.70
2017-07-06T09:13:48.471Z,19.60
2017-07-06T09:16:16.633Z,19.60
2017-07-06T09:18:45.541Z,19.50
2017-07-06T09:21:13.680Z,19.50
2017-07-06T09:23:41.862Z,19.70
2017-07-06T09:26:10.495Z,19.90
2017-07-06T09:28:39.403Z,20.20
2017-07-06T09:31:07.558Z,20.10
2017-07-06T09:33:36.395Z,20.20
2017-07-06T09:36:04.591Z,20.30
2017-07-06T09:38:32.715Z,20.30
2017-07-06T09:41:00.897Z,20.30
2017-07-06T09:43:29.071Z,20.20
2017-07-06T09:45:57.251Z,20.20
2017-07-06T09:48:25.378Z,20.20
2017-07-06T09:50:54.300Z,20.30
2017-07-06T09:53:22.447Z,20.50
2017-07-06T09:55:51.975Z,20.80
2017-07-06T09:58:21.964Z,20.80
2017-07-06T10:00:50.092Z,20.80
2017-07-06T10:03:18.259Z,20.90
2017-07-06T10:05:46.417Z,21.10
2017-07-06T10:08:15.007Z,21.40
2017-07-06T10:10:54.233Z,21.60
2017-07-06T10:13:22.403Z,21.60
2017-07-06T10:15:50.576Z,21.80
2017-07-06T10:18:18.747Z,21.80
2017-07-06T10:20:46.894Z,21.90
2017-07-06T10:23:17.152Z,21.90
2017-07-06T10:25:45.382Z,21.90
2017-07-06T10:28:13.897Z,21.80
2017-07-06T10:30:42.038Z,21.70
2017-07-06T10:33:12.788Z,21.60
2017-07-06T10:35:43.997Z,21.60
2017-07-06T10:38:14.987Z,21.60
2017-07-06T10:40:45.412Z,21.70
2017-07-06T10:43:13.558Z,21.70
2017-07-06T10:48:43.039Z,21.70
2017-07-06T10:51:11.984Z,21.60
2017-07-06T10:53:45.660Z,21.60
2017-07-06T10:56:27.277Z,21.80
2017-07-06T10:58:55.436Z,21.90
2017-07-06T11:01:23.633Z,22.10
2017-07-06T11:03:56.071Z,22.30
2017-07-06T11:06:24.245Z,22.50
2017-07-06T11:08:52.357Z,22.50
2017-07-06T11:11:20.518Z,22.50
2017-07-06T11:13:49.457Z,22.70
2017-07-06T11:16:17.661Z,22.90
2017-07-06T11:18:45.782Z,22.80
2017-07-06T11:21:14.704Z,22.80
2017-07-06T11:23:42.888Z,22.80
2017-07-06T11:29:40.442Z,23.00
2017-07-06T11:32:09.667Z,23.20
2017-07-06T11:34:38.523Z,23.50
2017-07-06T11:37:08.998Z,23.40
2017-07-06T11:39:38.582Z,23.90
2017-07-06T11:42:12.390Z,23.90
2017-07-06T11:44:50.559Z,24.20
2017-07-06T11:47:23.417Z,24.60
2017-07-06T11:49:52.096Z,24.60
2017-07-06T11:52:20.411Z,24.80
2017-07-06T11:54:48.519Z,24.90
2017-07-06T11:57:20.944Z,25.10
2017-07-06T11:59:49.093Z,25.20
2017-07-06T12:02:17.263Z,25.10
2017-07-06T12:04:46.191Z,25.20
2017-07-06T12:07:14.340Z,25.20
2017-07-06T12:09:42.453Z,25.20
2017-07-06T12:12:10.650Z,25.40
2017-07-06T12:14:38.866Z,25.50
2017-07-06T12:17:07.019Z,25.40
2017-07-06T12:19:35.970Z,25.60
2017-07-06T12:22:04.115Z,25.60
2017-07-06T12:24:32.280Z,25.70
2017-07-06T12:27:00.496Z,25.80
2017-07-06T12:29:28.698Z,25.90
2017-07-06T12:31:56.831Z,25.80
2017-07-06T12:34:25.457Z,25.90
2017-07-06T12:36:53.735Z,25.90
2017-07-06T12:39:22.086Z,26.00
2017-07-06T12:41:51.110Z,26.00
2017-07-06T12:44:19.259Z,26.00
2017-07-06T12:46:47.435Z,26.20
2017-07-06T12:49:15.643Z,26.10
2017-07-06T12:51:44.486Z,26.20
2017-07-06T12:54:13.602Z,26.00
2017-07-06T12:56:41.704Z,25.80
2017-07-06T12:59:09.873Z,25.80
2017-07-06T13:01:38.023Z,25.60
2017-07-06T13:04:06.431Z,25.50
2017-07-06T13:06:36.218Z,25.40
2017-07-06T13:09:05.041Z,25.50
2017-07-06T13:11:33.161Z,25.50
2017-07-06T13:14:01.294Z,25.20
2017-07-06T13:16:29.443Z,25.10
2017-07-06T13:18:58.502Z,25.10
2017-07-06T13:21:26.701Z,25.10
2017-07-06T13:23:56.681Z,25.20
2017-07-06T13:26:28.394Z,25.20
2017-07-06T13:31:26.182Z,25.20
2017-07-06T13:33:54.489Z,25.10
2017-07-06T13:36:22.739Z,25.10
2017-07-06T13:38:51.826Z,25.10
2017-07-06T13:41:19.966Z,25.10
2017-07-06T13:43:48.441Z,25.00
2017-07-06T13:46:35.309Z,25.10
2017-07-06T13:49:03.431Z,25.10
2017-07-06T13:51:31.582Z,25.00
2017-07-06T13:54:07.264Z,25.00
2017-07-06T13:56:35.406Z,24.90
2017-07-06T13:59:03.523Z,24.80
2017-07-06T14:01:32.679Z,24.70
2017-07-06T14:04:00.851Z,24.60
2017-07-06T14:06:28.981Z,24.70
2017-07-06T14:08:58.196Z,24.70
2017-07-06T14:11:26.462Z,24.70
2017-07-06T14:13:55.454Z,24.70
2017-07-06T14:16:26.504Z,24.70
2017-07-06T14:18:55.860Z,24.70
2017-07-06T14:21:25.180Z,24.80
2017-07-06T14:23:59.818Z,24.80
2017-07-06T14:26:27.953Z,24.80
2017-07-06T14:28:57.159Z,24.70
2017-07-06T14:31:26.292Z,24.70
2017-07-06T14:33:54.496Z,24.70
2017-07-06T14:36:22.765Z,24.60
2017-07-06T14:38:50.947Z,24.60
2017-07-06T14:41:34.978Z,24.60
2017-07-06T14:44:11.249Z,24.80
2017-07-06T14:46:39.519Z,24.70
2017-07-06T14:49:17.497Z,24.80
2017-07-06T14:51:45.718Z,24.70
2017-07-06T14:54:14.328Z,24.60
2017-07-06T14:56:46.969Z,24.70
2017-07-06T14:59:15.175Z,24.70
2017-07-06T15:01:43.833Z,24.50
2017-07-06T15:04:14.596Z,24.60
2017-07-06T15:06:42.835Z,24.60
2017-07-06T15:09:11.905Z,24.60
2017-07-06T15:11:40.091Z,24.70
2017-07-06T15:14:08.346Z,24.70
2017-07-06T15:16:45.322Z,24.80
2017-07-06T15:19:13.596Z,24.70
2017-07-06T15:21:41.814Z,24.70
2017-07-06T15:24:11.169Z,24.80
2017-07-06T15:26:39.316Z,24.90
2017-07-06T15:29:07.484Z,25.00
2017-07-06T15:31:35.650Z,25.00
2017-07-06T15:34:04.653Z,25.20
2017-07-06T15:36:32.919Z,25.40
2017-07-06T15:39:01.073Z,25.60
2017-07-06T15:41:29.240Z,25.70
2017-07-06T15:43:57.356Z,25.90
2017-07-06T15:46:25.649Z,25.90
2017-07-06T15:48:54.680Z,25.80
2017-07-06T15:51:23.745Z,25.60
2017-07-06T15:53:52.685Z,25.50
2017-07-06T15:56:21.555Z,25.60
2017-07-06T15:58:51.317Z,25.70
2017-07-06T16:01:19.545Z,25.80
2017-07-06T16:03:50.993Z,25.90
2017-07-06T16:06:20.544Z,26.10
2017-07-06T16:08:49.365Z,26.20
2017-07-06T16:11:19.811Z,26.30
2017-07-06T16:13:47.928Z,26.30
2017-07-06T16:16:16.198Z,26.20
2017-07-06T16:18:44.388Z,26.50
2017-07-06T16:21:12.506Z,26.60
2017-07-06T16:23:40.602Z,26.70
2017-07-06T16:26:09.391Z,26.70
2017-07-06T16:28:37.553Z,26.80
2017-07-06T16:31:06.839Z,27.00
2017-07-06T16:33:39.454Z,26.90
2017-07-06T16:36:07.657Z,26.90
2017-07-06T16:38:36.911Z,26.90
2017-07-06T16:41:05.135Z,26.80
2017-07-06T16:43:35.081Z,26.90
2017-07-06T16:46:03.249Z,27.00
2017-07-06T16:48:31.369Z,27.00
2017-07-06T16:50:59.515Z,27.00
2017-07-06T16:53:28.142Z,27.00
2017-07-06T16:55:56.765Z,27.10
2017-07-06T16:58:28.642Z,27.20
2017-07-06T17:00:56.791Z,27.40
2017-07-06T17:03:25.929Z,27.50
2017-07-06T17:05:54.198Z,27.60
2017-07-06T17:08:22.969Z,27.60
2017-07-06T17:10:55.646Z,27.80
2017-07-06T17:13:24.833Z,28.00
2017-07-06T17:15:55.204Z,28.10
2017-07-06T17:18:31.704Z,28.20
2017-07-06T17:23:33.931Z,28.20
2017-07-06T17:26:04.150Z,28.20
2017-07-06T17:28:33.749Z,28.20
2017-07-06T17:31:10.977Z,28.30
2017-07-06T17:33:56.019Z,28.40
2017-07-06T17:36:26.092Z,28.60
2017-07-06T17:38:54.202Z,28.50
2017-07-06T17:41:23.242Z,28.60
2017-07-06T17:44:03.194Z,28.60
2017-07-06T17:46:31.364Z,28.70
2017-07-06T17:49:04.107Z,28.80
2017-07-06T17:51:33.887Z,28.80
2017-07-06T17:54:25.103Z,28.80
2017-07-06T17:56:53.582Z,28.70
2017-07-06T17:59:28.116Z,28.80
2017-07-06T18:01:57.660Z,28.90
2017-07-06T18:04:30.168Z,28.90
2017-07-06T18:07:00.971Z,28.70
2017-07-06T18:09:29.140Z,28.40
2017-07-06T18:11:57.964Z,28.20
2017-07-06T18:14:26.954Z,28.10
2017-07-06T18:17:01.822Z,28.10
2017-07-06T18:19:30.154Z,28.30
2017-07-06T18:21:58.315Z,28.40
2017-07-06T18:24:26.631Z,28.40
2017-07-06T18:26:54.939Z,28.50
2017-07-06T18:29:25.456Z,28.40
2017-07-06T18:31:55.331Z,27.90
2017-07-06T18:34:23.563Z,27.70
2017-07-06T18:36:53.505Z,26.80
2017-07-06T18:39:23.685Z,26.70
2017-07-06T18:41:51.907Z,26.10
2017-07-06T18:47:32.041Z,25.40
2017-07-06T18:50:02.115Z,25.20
2017-07-06T18:52:32.123Z,25.10
2017-07-06T18:55:05.573Z,24.80
2017-07-06T18:57:33.936Z,24.40
2017-07-06T19:00:02.563Z,24.20
2017-07-06T19:02:30.772Z,23.90
2017-07-06T19:04:58.929Z,23.80
2017-07-06T19:07:28.418Z,23.70
2017-07-06T19:10:08.685Z,23.60
2017-07-06T19:12:36.910Z,23.40
2017-07-06T19:15:05.089Z,23.40
2017-07-06T19:17:33.602Z,23.30
2017-07-06T19:20:01.771Z,23.20
2017-07-06T19:22:31.147Z,23.00
2017-07-06T19:24:59.413Z,23.00
2017-07-06T19:27:29.315Z,22.90
2017-07-06T19:29:57.508Z,22.80
2017-07-06T19:32:25.626Z,22.70
2017-07-06T19:34:54.946Z,22.60
2017-07-06T19:37:24.372Z,22.60
2017-07-06T19:39:53.549Z,22.50
2017-07-06T19:42:22.174Z,22.40
2017-07-06T19:44:50.424Z,22.30
2017-07-06T19:47:19.460Z,22.20
2017-07-06T19:49:59.339Z,22.10
2017-07-06T19:52:31.879Z,21.70
2017-07-06T19:55:15.359Z,21.70
2017-07-06T19:57:52.408Z,21.60
2017-07-06T20:00:24.596Z,21.50
2017-07-06T20:14:27.723Z,20.80
2017-07-06T20:19:37.506Z,20.70
2017-07-06T20:22:06.101Z,20.60
2017-07-06T20:24:50.198Z,20.60
2017-07-06T20:27:24.573Z,20.50
2017-07-06T20:32:51.911Z,20.40
2017-07-06T20:35:24.939Z,20.30
2017-07-06T20:37:53.841Z,20.30
2017-07-06T20:40:24.580Z,20.20
2017-07-06T20:43:02.148Z,20.20
2017-07-06T20:45:38.031Z,20.20
2017-07-06T20:48:07.574Z,20.10
2017-07-06T20:50:38.464Z,20.00
2017-07-06T20:53:12.672Z,20.00
2017-07-06T20:55:41.265Z,19.90
2017-07-06T20:58:18.010Z,19.90
2017-07-06T21:00:51.057Z,19.90
2017-07-06T21:03:21.654Z,19.90
2017-07-06T21:05:50.868Z,19.90
2017-07-06T21:08:20.032Z,19.80
2017-07-06T21:10:49.443Z,19.80
2017-07-06T21:13:17.638Z,19.80
2017-07-06T21:15:46.713Z,19.70
2017-07-06T21:18:16.122Z,19.70
2017-07-06T21:20:54.301Z,19.70
2017-07-06T21:23:26.583Z,19.60
2017-07-06T21:25:54.940Z,19.50
2017-07-06T21:28:27.906Z,19.40
2017-07-06T21:30:57.498Z,19.20
2017-07-06T21:33:51.131Z,19.10
2017-07-06T21:36:30.344Z,19.00
2017-07-06T21:39:12.235Z,18.90
2017-07-06T21:41:53.817Z,18.90
2017-07-06T21:44:23.283Z,18.90
2017-07-06T21:58:35.190Z,18.80
2017-07-06T22:01:04.121Z,18.70
2017-07-06T22:03:38.735Z,18.70
2017-07-06T22:06:10.148Z,18.80
2017-07-06T22:08:39.291Z,18.80
2017-07-06T22:11:08.232Z,18.80
2017-07-06T22:13:44.397Z,18.80
2017-07-06T22:16:12.614Z,18.80
2017-07-06T22:18:40.740Z,18.90
2017-07-06T22:21:08.895Z,18.90
2017-07-06T22:23:37.027Z,18.90
2017-07-06T22:26:05.710Z,18.90
2017-07-06T22:28:34.859Z,18.90
2017-07-06T22:31:05.912Z,18.80
2017-07-06T22:33:36.029Z,18.80
2017-07-06T22:36:04.563Z,18.80
2017-07-06T22:38:32.786Z,18.80
2017-07-06T22:41:06.739Z,18.80
2017-07-06T22:43:34.865Z,18.80
2017-07-06T22:46:03.032Z,18.80
2017-07-06T22:48:33.741Z,18.90
2017-07-06T22:51:02.950Z,18.90
2017-07-06T23:08:06.516Z,18.60
2017-07-06T23:10:42.147Z,18.60
2017-07-06T23:13:19.579Z,18.50
2017-07-06T23:15:49.414Z,18.50
2017-07-06T23:23:12.893Z,18.50
2017-07-06T23:25:45.367Z,18.40
2017-07-06T23:28:25.920Z,18.40
2017-07-06T23:33:55.574Z,18.30
2017-07-06T23:36:24.609Z,18.30
2017-07-06T23:38:52.774Z,18.30
2017-07-06T23:42:26.076Z,18.30
2017-07-06T23:44:54.295Z,18.30
2017-07-06T23:47:24.103Z,18.30
2017-07-06T23:49:53.216Z,18.30
2017-07-06T23:52:21.414Z,18.30
2017-07-06T23:54:49.656Z,18.40
2017-07-06T23:57:17.943Z,18.40
2017-07-06T23:59:46.166Z,18.40
